Terminal Aerodrome Forecast
Issued by NWS

Home | Current Version | Previous Version | Text Only | Print | Product List | Glossary On
Versions: 1 2 3 4 5 6 7 8 9 10 11 12 13 14
000
FTUS45 KABQ 222012 AAA
TAFSAF
TAF AMD
KSAF 222012Z 2220/2318 16010KT P6SM VCTS SCT080CB
      TEMPO 2220/2223 VRB25G35KT -TSRA BKN070CB
     FM230100 09018G25KT P6SM VCSH BKN070
     FM230600 08010KT P6SM SCT090=

USA.gov is the U.S. government's official web portal to all federal, state and local government web resources and services.